Time;durP1;ratioP1;P1;durP2;ratioP2;P2;SDS_P1;SDS_P2;PMS_P1;PMS_P2;Temp;Humidity;BMP_temperature;BMP_pressure;BME280_temperature;BME280_humidity;BME280_pressure;Samples;Min_cycle;Max_cycle;Signal;HPM_P1;HPM_P2
2022/03/01 00:01:04;;;;;;;18.58;12.15;;;;;;;;;;4899350;29;20046;-70
2022/03/01 00:03:34;;;;;;;19.02;12.60;;;;;;;;;;4899070;29;20131;-70
2022/03/01 00:06:03;;;;;;;16.45;11.63;;;;;;;;;;4899066;29;20076;-70
2022/03/01 00:08:34;;;;;;;16.55;11.55;;;;;;;;;;4899346;29;20060;-70
2022/03/01 00:11:03;;;;;;;17.52;11.80;;;;;;;;;;4899210;29;20056;-70
2022/03/01 00:13:31;;;;;;;16.77;12.63;;;;;;;;;;4898838;29;20100;-70
2022/03/01 00:16:02;;;;;;;20.00;12.40;;;;;;;;;;4899408;29;20040;-70
2022/03/01 00:18:31;;;;;;;19.08;12.60;;;;;;;;;;4899452;29;20048;-70
2022/03/01 00:21:03;;;;;;;16.60;11.80;;;;;;;;;;4898696;29;20047;-70
2022/03/01 00:23:32;;;;;;;18.90;11.98;;;;;;;;;;4898820;29;20127;-70
2022/03/01 00:26:01;;;;;;;21.85;12.35;;;;;;;;;;4898484;29;20092;-71
2022/03/01 00:28:32;;;;;;;20.45;12.43;;;;;;;;;;4898878;29;20043;-70
2022/03/01 00:31:04;;;;;;;22.67;13.70;;;;;;;;;;4898647;29;20091;-70
2022/03/01 00:33:32;;;;;;;20.02;12.75;;;;;;;;;;4898005;29;20052;-70
2022/03/01 00:36:04;;;;;;;20.67;11.95;;;;;;;;;;4898630;29;20468;-70
2022/03/01 00:38:35;;;;;;;17.77;12.38;;;;;;;;;;4898844;29;20045;-70
2022/03/01 00:41:04;;;;;;;18.48;12.68;;;;;;;;;;4898803;29;20040;-70
2022/03/01 00:43:34;;;;;;;18.90;13.00;;;;;;;;;;4898328;29;20052;-70
2022/03/01 00:46:07;;;;;;;17.35;12.23;;;;;;;;;;4898482;29;20053;-70
2022/03/01 00:48:37;;;;;;;18.15;13.00;;;;;;;;;;4898737;29;20406;-70
2022/03/01 00:51:06;;;;;;;17.48;12.68;;;;;;;;;;4898534;29;20444;-70
2022/03/01 00:53:39;;;;;;;20.13;12.82;;;;;;;;;;4898124;29;20055;-70
2022/03/01 00:56:06;;;;;;;18.17;12.18;;;;;;;;;;4898561;29;20380;-70
2022/03/01 00:58:37;;;;;;;17.05;11.00;;;;;;;;;;4898381;29;20127;-70
2022/03/01 01:01:06;;;;;;;16.75;11.73;;;;;;;;;;4898103;29;20511;-70
2022/03/01 01:03:40;;;;;;;18.95;12.20;;;;;;;;;;4898429;29;20037;-70
2022/03/01 01:06:12;;;;;;;21.10;13.02;;;;;;;;;;4898207;29;20037;-70
2022/03/01 01:08:41;;;;;;;18.08;11.30;;;;;;;;;;4898271;29;20046;-70
2022/03/01 01:11:09;;;;;;;20.27;12.18;;;;;;;;;;4898397;29;20045;-70
2022/03/01 01:13:38;;;;;;;18.58;12.20;;;;;;;;;;4898000;29;20096;-70
2022/03/01 01:16:09;;;;;;;16.48;12.02;;;;;;;;;;4898239;29;20056;-70
2022/03/01 01:18:38;;;;;;;17.30;12.05;;;;;;;;;;4897343;29;20131;-70
2022/03/01 01:21:11;;;;;;;19.88;13.32;;;;;;;;;;4897898;29;20046;-70
2022/03/01 01:23:43;;;;;;;16.33;11.82;;;;;;;;;;4898112;29;20049;-70
2022/03/01 01:26:14;;;;;;;19.35;13.50;;;;;;;;;;4898458;29;20427;-70
2022/03/01 01:28:43;;;;;;;21.00;13.07;;;;;;;;;;4897787;29;20044;-71
2022/03/01 01:31:16;;;;;;;18.48;12.32;;;;;;;;;;4897954;29;20064;-70
2022/03/01 01:33:45;;;;;;;18.30;13.52;;;;;;;;;;4897707;29;20060;-71
2022/03/01 01:36:18;;;;;;;19.15;13.55;;;;;;;;;;4898257;29;20460;-71
2022/03/01 01:38:47;;;;;;;20.42;12.98;;;;;;;;;;4897873;29;20049;-70
2022/03/01 01:41:17;;;;;;;19.92;13.07;;;;;;;;;;4898040;29;20381;-70
2022/03/01 01:43:52;;;;;;;21.90;14.10;;;;;;;;;;4898705;29;20056;-70
2022/03/01 01:46:25;;;;;;;22.37;14.13;;;;;;;;;;4901657;29;20052;-70
2022/03/01 01:48:53;;;;;;;22.38;13.77;;;;;;;;;;4901898;29;20037;-70
2022/03/01 01:51:45;;;;;;;23.30;14.65;;;;;;;;;;4901957;29;20048;-71
2022/03/01 01:54:38;;;;;;;22.48;15.15;;;;;;;;;;4901452;29;20407;-71
2022/03/01 01:57:30;;;;;;;20.60;14.13;;;;;;;;;;4901491;29;20042;-70
2022/03/01 02:00:03;;;;;;;21.77;14.25;;;;;;;;;;4902018;29;20047;-71
2022/03/01 02:02:38;;;;;;;20.48;13.55;;;;;;;;;;4901662;29;20086;-70
2022/03/01 02:08:52;;;;;;;22.23;14.23;;;;;;;;;;4901073;29;20055;-70
2022/03/01 02:11:20;;;;;;;23.20;15.07;;;;;;;;;;4900773;29;20075;-70
2022/03/01 02:14:12;;;;;;;22.67;13.63;;;;;;;;;;4900902;29;20112;-70
2022/03/01 02:17:05;;;;;;;19.75;13.55;;;;;;;;;;4901119;29;20049;-70
2022/03/01 02:19:37;;;;;;;19.70;13.85;;;;;;;;;;4901104;29;20064;-71
2022/03/01 02:22:07;;;;;;;22.38;14.35;;;;;;;;;;4900718;29;20068;-70
2022/03/01 02:24:36;;;;;;;23.90;14.00;;;;;;;;;;4901261;29;20040;-70
2022/03/01 02:27:07;;;;;;;23.60;14.35;;;;;;;;;;4900993;29;20045;-70
2022/03/01 02:30:00;;;;;;;22.13;13.55;;;;;;;;;;4900952;29;20518;-70
2022/03/01 02:32:28;;;;;;;20.45;13.73;;;;;;;;;;4900528;29;20507;-70
2022/03/01 02:35:20;;;;;;;22.45;13.70;;;;;;;;;;4899594;29;20056;-70
2022/03/01 02:37:52;;;;;;;19.33;12.52;;;;;;;;;;4900842;29;20503;-70
2022/03/01 02:40:20;;;;;;;19.45;13.27;;;;;;;;;;4900717;29;20045;-70
2022/03/01 02:42:49;;;;;;;20.08;12.98;;;;;;;;;;4900622;29;20104;-69
2022/03/01 02:45:24;;;;;;;20.17;13.52;;;;;;;;;;4901143;29;20064;-70
2022/03/01 02:47:56;;;;;;;;;;;;;;;;;;4901097;29;20048;-70
2022/03/01 02:50:23;;;;;;;21.65;12.77;;;;;;;;;;4900563;29;19977;-70
2022/03/01 02:52:58;;;;;;;21.92;13.63;;;;;;;;;;4900353;29;20048;-70
2022/03/01 02:55:29;;;;;;;19.75;13.88;;;;;;;;;;4899782;29;20515;-70
2022/03/01 02:57:59;;;;;;;23.60;13.45;;;;;;;;;;4900005;29;20054;-70
2022/03/01 03:00:27;;;;;;;20.77;14.70;;;;;;;;;;4900268;29;20123;-70
2022/03/01 03:03:14;;;;;;;21.60;13.43;;;;;;;;;;4900207;29;20040;-70
2022/03/01 03:08:43;;;;;;;25.95;14.57;;;;;;;;;;4899919;29;20045;-70
2022/03/01 03:14:10;;;;;;;25.40;14.60;;;;;;;;;;4900707;29;20465;-70
2022/03/01 03:16:38;;;;;;;23.30;15.68;;;;;;;;;;4899687;29;20100;-70
2022/03/01 03:19:07;;;;;;;25.30;15.90;;;;;;;;;;4899894;29;20056;-70
2022/03/01 03:21:40;;;;;;;26.83;14.95;;;;;;;;;;4900421;29;20474;-70
2022/03/01 03:24:08;;;;;;;21.23;14.27;;;;;;;;;;4899896;29;20115;-70
2022/03/01 03:27:01;;;;;;;23.27;15.23;;;;;;;;;;4899457;29;20104;-70
2022/03/01 03:29:31;;;;;;;25.00;16.13;;;;;;;;;;4899810;29;20073;-70
2022/03/01 03:31:59;;;;;;;22.67;15.10;;;;;;;;;;4899973;29;20065;-70
2022/03/01 03:34:32;;;;;;;24.00;15.15;;;;;;;;;;4899628;29;20109;-70
2022/03/01 03:37:06;;;;;;;19.85;14.00;;;;;;;;;;4899960;29;20372;-70
2022/03/01 03:39:33;;;;;;;26.45;15.77;;;;;;;;;;4899811;29;20063;-70
2022/03/01 03:42:05;;;;;;;23.13;14.98;;;;;;;;;;4899623;29;20048;-69
2022/03/01 03:44:32;;;;;;;23.88;14.63;;;;;;;;;;4899500;29;20048;-69
2022/03/01 03:47:03;;;;;;;21.98;15.32;;;;;;;;;;4899451;29;20135;-70
2022/03/01 03:49:32;;;;;;;24.30;15.88;;;;;;;;;;4899187;29;20053;-70
2022/03/01 03:52:00;;;;;;;24.10;14.50;;;;;;;;;;4899213;29;20049;-69
2022/03/01 03:54:28;;;;;;;22.35;15.60;;;;;;;;;;4899462;29;20044;-70
2022/03/01 03:57:07;;;;;;;24.13;15.88;;;;;;;;;;4899123;29;20097;-70
2022/03/01 03:59:36;;;;;;;24.15;15.40;;;;;;;;;;4899082;29;20041;-69
2022/03/01 04:02:05;;;;;;;25.90;15.52;;;;;;;;;;4899303;29;20041;-70
2022/03/01 04:04:34;;;;;;;22.15;15.48;;;;;;;;;;4899246;29;20100;-69
2022/03/01 04:07:04;;;;;;;24.50;16.40;;;;;;;;;;4898881;29;20076;-69
2022/03/01 04:09:32;;;;;;;25.08;16.20;;;;;;;;;;4899067;29;20055;-69
2022/03/01 04:12:05;;;;;;;23.77;15.02;;;;;;;;;;4899155;29;20097;-69
2022/03/01 04:14:35;;;;;;;24.15;16.63;;;;;;;;;;4898983;29;20555;-69
2022/03/01 04:17:09;;;;;;;22.40;15.77;;;;;;;;;;4898961;29;20043;-70
2022/03/01 04:19:39;;;;;;;23.63;15.65;;;;;;;;;;4898912;29;20051;-69
2022/03/01 04:22:08;;;;;;;23.48;15.23;;;;;;;;;;4899020;29;20055;-69
2022/03/01 04:24:37;;;;;;;24.48;15.90;;;;;;;;;;4899178;29;20060;-69
2022/03/01 04:27:05;;;;;;;25.35;16.25;;;;;;;;;;4899172;29;20092;-70
2022/03/01 04:29:34;;;;;;;22.52;15.02;;;;;;;;;;4898825;29;20404;-69
2022/03/01 04:32:02;;;;;;;24.95;15.30;;;;;;;;;;4898726;29;20079;-70
2022/03/01 04:34:37;;;;;;;24.05;16.45;;;;;;;;;;4898548;29;20036;-70
2022/03/01 04:40:42;;;;;;;24.73;14.88;;;;;;;;;;4898520;29;20036;-70
2022/03/01 04:46:39;;;;;;;23.70;15.90;;;;;;;;;;4898063;29;20103;-69
2022/03/01 04:52:49;;;;;;;24.40;14.23;;;;;;;;;;4898298;29;20052;-69
2022/03/01 04:55:18;;;;;;;25.85;15.95;;;;;;;;;;4898111;29;20044;-69
2022/03/01 04:57:47;;;;;;;27.00;16.33;;;;;;;;;;4898381;29;20036;-68
2022/03/01 05:00:15;;;;;;;25.50;16.48;;;;;;;;;;4898100;29;20050;-69
2022/03/01 05:02:47;;;;;;;26.55;17.13;;;;;;;;;;4898090;29;20396;-70
2022/03/01 05:05:15;;;;;;;25.23;15.85;;;;;;;;;;4898130;29;20045;-69
2022/03/01 05:07:48;;;;;;;28.10;16.95;;;;;;;;;;4898592;29;20049;-69
2022/03/01 05:10:24;;;;;;;27.92;17.08;;;;;;;;;;4898428;29;20461;-69
2022/03/01 05:12:55;;;;;;;;;;;;;;;;;;4898461;29;20048;-69
2022/03/01 05:15:25;;;;;;;24.42;16.48;;;;;;;;;;4897849;29;19930;-69
2022/03/01 05:17:59;;;;;;;25.10;15.77;;;;;;;;;;4898555;29;20438;-69
2022/03/01 05:20:30;;;;;;;26.40;16.80;;;;;;;;;;4901079;29;20496;-70
2022/03/01 05:22:57;;;;;;;28.25;17.70;;;;;;;;;;4902157;29;20510;-69
2022/03/01 05:25:29;;;;;;;24.77;16.52;;;;;;;;;;4901665;29;20048;-68
2022/03/01 05:27:56;;;;;;;28.20;17.73;;;;;;;;;;4901827;29;20044;-68
2022/03/01 05:30:25;;;;;;;26.50;17.95;;;;;;;;;;4901976;29;20049;-68
2022/03/01 05:32:53;;;;;;;24.95;16.27;;;;;;;;;;4900435;29;20087;-69
2022/03/01 05:35:29;;;;;;;25.52;16.40;;;;;;;;;;4900675;29;20407;-70
2022/03/01 05:37:57;;;;;;;24.73;14.70;;;;;;;;;;4901979;29;20045;-69
2022/03/01 05:40:26;;;;;;;26.83;15.90;;;;;;;;;;4901415;29;20037;-69
2022/03/01 05:42:53;;;;;;;24.88;15.38;;;;;;;;;;4901571;29;20103;-69
2022/03/01 05:45:25;;;;;;;23.27;14.82;;;;;;;;;;4901691;29;20492;-70
2022/03/01 05:48:00;;;;;;;25.75;16.60;;;;;;;;;;4901929;29;20127;-70
2022/03/01 05:50:28;;;;;;;24.13;15.23;;;;;;;;;;4901780;29;20045;-68
2022/03/01 05:52:56;;;;;;;23.45;15.00;;;;;;;;;;4900973;29;20096;-69
2022/03/01 05:55:26;;;;;;;26.48;17.48;;;;;;;;;;4901728;29;20041;-69
2022/03/01 05:57:57;;;;;;;23.75;15.07;;;;;;;;;;4901711;29;20412;-69
2022/03/01 06:00:29;;;;;;;23.27;15.57;;;;;;;;;;4901697;29;20044;-69
2022/03/01 06:03:05;;;;;;;20.13;14.00;;;;;;;;;;4901742;29;20036;-69
2022/03/01 06:05:35;;;;;;;19.08;13.70;;;;;;;;;;4897090;29;20044;-70
2022/03/01 06:08:03;;;;;;;20.98;13.70;;;;;;;;;;4900843;29;20053;-70
2022/03/01 06:10:31;;;;;;;20.05;13.93;;;;;;;;;;4899811;29;20044;-70
2022/03/01 06:13:02;;;;;;;20.35;15.02;;;;;;;;;;4901176;29;20049;-70
2022/03/01 06:15:31;;;;;;;23.75;15.02;;;;;;;;;;4901310;29;20041;-71
2022/03/01 06:18:04;;;;;;;21.02;14.98;;;;;;;;;;4899910;29;20040;-70
2022/03/01 06:20:33;;;;;;;22.95;14.43;;;;;;;;;;4901093;29;20518;-70
2022/03/01 06:23:02;;;;;;;21.20;15.18;;;;;;;;;;4901301;29;20045;-70
2022/03/01 06:25:29;;;;;;;22.17;15.27;;;;;;;;;;4900783;29;20491;-70
2022/03/01 06:27:58;;;;;;;22.55;15.55;;;;;;;;;;4900593;29;20045;-69
2022/03/01 06:30:25;;;;;;;22.88;15.73;;;;;;;;;;4900023;29;20040;-69
2022/03/01 06:33:00;;;;;;;24.13;15.77;;;;;;;;;;4900469;29;20460;-69
2022/03/01 06:35:28;;;;;;;21.90;15.88;;;;;;;;;;4899406;29;20042;-69
2022/03/01 06:37:56;;;;;;;24.08;15.85;;;;;;;;;;4901308;29;20128;-70
2022/03/01 06:40:28;;;;;;;24.77;16.75;;;;;;;;;;4900656;29;20052;-69
2022/03/01 06:43:04;;;;;;;24.02;15.18;;;;;;;;;;4899716;29;20440;-69
2022/03/01 06:45:35;;;;;;;23.10;14.30;;;;;;;;;;4900792;29;20045;-69
2022/03/01 06:48:12;;;;;;;21.92;14.85;;;;;;;;;;4900498;29;20183;-69
2022/03/01 06:50:39;;;;;;;23.17;16.02;;;;;;;;;;4900107;29;20491;-69
2022/03/01 06:53:14;;;;;;;23.83;15.55;;;;;;;;;;4900253;29;20049;-68
2022/03/01 06:55:42;;;;;;;22.52;14.85;;;;;;;;;;4897381;29;20055;-69
2022/03/01 06:58:10;;;;;;;20.20;14.13;;;;;;;;;;4898575;29;20052;-69
2022/03/01 07:00:38;;;;;;;20.23;13.43;;;;;;;;;;4899542;29;20044;-68
2022/03/01 07:03:05;;;;;;;19.30;13.95;;;;;;;;;;4899622;29;20127;-69
2022/03/01 07:05:33;;;;;;;19.42;13.63;;;;;;;;;;4900035;29;20407;-69
2022/03/01 07:08:01;;;;;;;37.50;18.25;;;;;;;;;;4899938;29;20091;-69
2022/03/01 07:10:32;;;;;;;19.33;14.10;;;;;;;;;;4900015;29;20049;-69
2022/03/01 07:13:25;;;;;;;16.48;12.95;;;;;;;;;;4900303;29;20049;-69
2022/03/01 07:15:54;;;;;;;21.08;14.70;;;;;;;;;;4900499;29;20082;-69
2022/03/01 07:18:24;;;;;;;19.70;14.73;;;;;;;;;;4900398;29;20073;-69
2022/03/01 07:20:52;;;;;;;18.42;13.25;;;;;;;;;;4899910;29;20504;-68
2022/03/01 07:23:44;;;;;;;17.42;13.10;;;;;;;;;;4899965;29;20049;-68
2022/03/01 07:26:13;;;;;;;20.02;14.90;;;;;;;;;;4900328;29;20139;-69
2022/03/01 07:28:42;;;;;;;17.73;13.50;;;;;;;;;;4900372;29;20049;-68
2022/03/01 07:31:11;;;;;;;19.50;13.38;;;;;;;;;;4899840;29;20111;-69
2022/03/01 07:46:23;;;;;;;20.75;16.13;;;;;;;;;;5064282;27;1352820;-70
2022/03/01 07:48:50;;;;;;;17.88;14.07;;;;;;;;;;5090423;28;20102;-69
2022/03/01 07:51:18;;;;;;;20.10;15.15;;;;;;;;;;5090537;28;20048;-70
2022/03/01 07:53:45;;;;;;;20.25;14.90;;;;;;;;;;5090891;28;20071;-70
2022/03/01 07:56:14;;;;;;;22.83;15.50;;;;;;;;;;5090639;28;20094;-69
2022/03/01 07:58:42;;;;;;;21.77;15.45;;;;;;;;;;5090422;28;20036;-70
2022/03/01 08:01:10;;;;;;;23.58;16.48;;;;;;;;;;5090192;28;20486;-69
2022/03/01 08:03:38;;;;;;;20.83;14.93;;;;;;;;;;5089941;28;20051;-69
2022/03/01 08:06:05;;;;;;;20.70;14.50;;;;;;;;;;5089931;28;20074;-70
2022/03/01 08:08:33;;;;;;;22.25;15.27;;;;;;;;;;5090445;28;20041;-70
2022/03/01 08:11:01;;;;;;;25.65;17.25;;;;;;;;;;5071820;28;20555;-70
2022/03/01 08:13:40;;;;;;;25.08;16.42;;;;;;;;;;5089902;28;20047;-70
2022/03/01 08:16:08;;;;;;;22.02;16.13;;;;;;;;;;5090137;28;20044;-70
2022/03/01 08:18:35;;;;;;;22.17;16.85;;;;;;;;;;5089769;28;20044;-70
2022/03/01 08:21:03;;;;;;;22.52;15.90;;;;;;;;;;5072149;28;20409;-70
2022/03/01 08:23:31;;;;;;;31.27;20.75;;;;;;;;;;5089893;28;20040;-70
2022/03/01 08:25:58;;;;;;;29.85;20.55;;;;;;;;;;5089509;28;20509;-70
2022/03/01 08:28:26;;;;;;;37.75;22.33;;;;;;;;;;5089819;28;20048;-70
2022/03/01 08:30:54;;;;;;;32.60;23.13;;;;;;;;;;5089948;28;20127;-70
2022/03/01 08:33:24;;;;;;;34.42;23.42;;;;;;;;;;5089454;28;20097;-69
2022/03/01 08:35:55;;;;;;;47.50;33.83;;;;;;;;;;5089533;28;20054;-69
2022/03/01 08:38:24;;;;;;;52.47;38.70;;;;;;;;;;5089797;28;20111;-70
2022/03/01 08:40:52;;;;;;;49.03;34.28;;;;;;;;;;5089624;28;20067;-69
2022/03/01 08:43:21;;;;;;;30.98;22.27;;;;;;;;;;5089478;28;20063;-69
2022/03/01 08:45:49;;;;;;;49.05;32.88;;;;;;;;;;5084170;28;20483;-69
2022/03/01 08:48:17;;;;;;;32.88;22.67;;;;;;;;;;5076053;28;20049;-69
2022/03/01 08:50:44;;;;;;;28.38;19.52;;;;;;;;;;5076060;28;20090;-70
2022/03/01 08:53:16;;;;;;;29.05;22.00;;;;;;;;;;5075633;28;20491;-69
2022/03/01 08:55:44;;;;;;;26.83;20.80;;;;;;;;;;5075529;28;20044;-69
2022/03/01 08:58:11;;;;;;;24.55;19.17;;;;;;;;;;5057832;28;20041;-70
2022/03/01 09:00:39;;;;;;;25.02;17.83;;;;;;;;;;5075625;28;20124;-71
2022/03/01 09:03:07;;;;;;;27.70;20.75;;;;;;;;;;5075708;28;20119;-68
2022/03/01 09:05:35;;;;;;;27.45;19.25;;;;;;;;;;5075454;28;20486;-68
2022/03/01 09:08:03;;;;;;;30.05;20.23;;;;;;;;;;5075671;28;20053;-70
2022/03/01 09:10:31;;;;;;;26.48;19.85;;;;;;;;;;5075704;28;20053;-70
2022/03/01 09:12:59;;;;;;;25.98;19.83;;;;;;;;;;5075773;28;20032;-69
2022/03/01 09:15:31;;;;;;;25.90;20.15;;;;;;;;;;5075301;28;20048;-69
2022/03/01 09:18:00;;;;;;;28.00;20.63;;;;;;;;;;5075183;28;20486;-69
2022/03/01 09:20:28;;;;;;;30.65;21.33;;;;;;;;;;5075485;28;20123;-70
2022/03/01 09:22:57;;;;;;;29.67;22.88;;;;;;;;;;5075085;28;20139;-69
2022/03/01 09:25:25;;;;;;;29.60;21.35;;;;;;;;;;5075636;28;20049;-69
2022/03/01 09:27:52;;;;;;;28.63;21.42;;;;;;;;;;5075473;28;20406;-70
2022/03/01 09:30:20;;;;;;;26.63;21.80;;;;;;;;;;5075110;28;20497;-69
2022/03/01 09:32:48;;;;;;;29.65;23.00;;;;;;;;;;5075353;28;20063;-69
2022/03/01 09:35:16;;;;;;;31.63;21.50;;;;;;;;;;5074844;28;20044;-70
2022/03/01 09:37:44;;;;;;;30.55;24.75;;;;;;;;;;5074803;28;20076;-69
2022/03/01 09:40:12;;;;;;;26.88;21.45;;;;;;;;;;5075160;28;20047;-69
2022/03/01 09:42:40;;;;;;;27.15;22.13;;;;;;;;;;5074994;28;20117;-68
2022/03/01 09:45:08;;;;;;;26.23;20.98;;;;;;;;;;5074786;28;20486;-69
2022/03/01 09:47:36;;;;;;;27.50;22.90;;;;;;;;;;5074772;28;20083;-69
2022/03/01 09:50:04;;;;;;;32.67;23.63;;;;;;;;;;5074889;28;20037;-69
2022/03/01 09:52:36;;;;;;;31.58;23.48;;;;;;;;;;5074675;28;20036;-69
2022/03/01 09:55:04;;;;;;;29.10;22.73;;;;;;;;;;5074898;28;20102;-69
2022/03/01 09:57:32;;;;;;;34.13;23.90;;;;;;;;;;5073596;28;20040;-70
2022/03/01 09:59:59;;;;;;;31.92;23.80;;;;;;;;;;5074546;28;20074;-69
2022/03/01 10:02:36;;;;;;;26.75;20.55;;;;;;;;;;5074480;28;20087;-69
2022/03/01 10:05:05;;;;;;;25.25;18.73;;;;;;;;;;5074253;28;20086;-69
2022/03/01 10:07:33;;;;;;;31.48;22.50;;;;;;;;;;5074288;28;20029;-69
2022/03/01 10:10:05;;;;;;;36.38;25.38;;;;;;;;;;5074363;28;20135;-69
2022/03/01 10:12:33;;;;;;;24.70;16.98;;;;;;;;;;5074328;28;20036;-69
2022/03/01 10:15:04;;;;;;;18.00;13.73;;;;;;;;;;5074572;28;20098;-69
2022/03/01 10:17:36;;;;;;;17.50;11.82;;;;;;;;;;5074300;28;20082;-68
2022/03/01 10:20:11;;;;;;;17.73;12.02;;;;;;;;;;5073963;28;20051;-69
2022/03/01 10:22:47;;;;;;;15.23;12.18;;;;;;;;;;5074226;28;20040;-70
2022/03/01 10:25:15;;;;;;;17.25;11.93;;;;;;;;;;5074304;28;20040;-69
2022/03/01 10:27:44;;;;;;;19.17;12.43;;;;;;;;;;5073880;28;20051;-69
2022/03/01 10:30:12;;;;;;;16.98;12.90;;;;;;;;;;5074190;28;20115;-69
2022/03/01 10:32:40;;;;;;;16.10;12.20;;;;;;;;;;5074171;28;20040;-69
2022/03/01 10:35:10;;;;;;;18.05;13.45;;;;;;;;;;5073560;28;20044;-69
2022/03/01 10:37:39;;;;;;;16.35;12.35;;;;;;;;;;5073817;28;20040;-70
2022/03/01 10:40:10;;;;;;;19.02;13.35;;;;;;;;;;5073849;28;20095;-69
2022/03/01 10:42:38;;;;;;;19.58;13.57;;;;;;;;;;5073824;28;20406;-69
2022/03/01 10:45:06;;;;;;;20.52;13.50;;;;;;;;;;5073347;28;20048;-70
2022/03/01 10:47:35;;;;;;;20.38;13.32;;;;;;;;;;5073640;28;20045;-68
2022/03/01 10:50:04;;;;;;;21.02;14.50;;;;;;;;;;5073714;28;20399;-69
2022/03/01 10:52:36;;;;;;;30.95;19.80;;;;;;;;;;5073384;28;20067;-70
2022/03/01 10:55:04;;;;;;;21.10;14.60;;;;;;;;;;5073388;28;20486;-70
2022/03/01 10:57:31;;;;;;;17.10;12.45;;;;;;;;;;5073220;28;20037;-70
2022/03/01 10:59:59;;;;;;;18.52;13.10;;;;;;;;;;5073252;28;20049;-69
2022/03/01 11:02:26;;;;;;;26.92;16.17;;;;;;;;;;5073934;28;20053;-69
2022/03/01 11:04:54;;;;;;;22.42;15.20;;;;;;;;;;5073216;28;20054;-69
2022/03/01 11:07:22;;;;;;;16.80;11.80;;;;;;;;;;5073940;28;20086;-70
2022/03/01 11:09:59;;;;;;;17.48;12.57;;;;;;;;;;5072919;28;20063;-70
2022/03/01 11:12:27;;;;;;;17.98;12.98;;;;;;;;;;5073175;28;20064;-70
2022/03/01 11:15:21;;;;;;;18.08;11.45;;;;;;;;;;5073150;28;20487;-70
2022/03/01 11:17:55;;;;;;;16.35;10.95;;;;;;;;;;5055346;28;20410;-70
2022/03/01 11:20:32;;;;;;;17.17;11.60;;;;;;;;;;5072996;28;20124;-70
2022/03/01 11:23:07;;;;;;;18.45;11.82;;;;;;;;;;5073742;28;20040;-69
2022/03/01 11:25:38;;;;;;;17.95;12.13;;;;;;;;;;5072902;28;20041;-70
2022/03/01 11:28:08;;;;;;;18.80;12.60;;;;;;;;;;5073183;28;20509;-70
2022/03/01 11:30:38;;;;;;;23.13;15.13;;;;;;;;;;5073234;28;20119;-70
2022/03/01 11:44:51;;;;;;;23.45;13.40;;;;;;;;;;5063500;27;1381630;-68
2022/03/01 11:47:32;;;;;;;16.35;11.73;;;;;;;;;;5090910;28;20040;-68
2022/03/01 11:50:18;;;;;;;18.70;11.15;;;;;;;;;;5090249;28;20051;-68
2022/03/01 11:52:49;;;;;;;19.48;11.93;;;;;;;;;;5090483;28;20059;-68
2022/03/01 11:55:19;;;;;;;17.05;11.00;;;;;;;;;;5090289;28;20040;-68
2022/03/01 11:57:46;;;;;;;14.70;9.77;;;;;;;;;;5090231;28;20040;-67
2022/03/01 12:00:14;;;;;;;12.05;7.95;;;;;;;;;;5090354;28;20043;-67
2022/03/01 12:02:45;;;;;;;9.23;6.90;;;;;;;;;;5090375;28;20062;-67
2022/03/01 12:05:23;;;;;;;14.23;8.20;;;;;;;;;;5090166;28;20043;-69
2022/03/01 12:07:54;;;;;;;13.32;7.70;;;;;;;;;;5090291;28;20051;-67
2022/03/01 12:10:54;;;;;;;9.25;6.90;;;;;;;;;;5089966;28;20040;-68
2022/03/01 12:13:32;;;;;;;10.20;7.22;;;;;;;;;;5090153;28;20082;-67
2022/03/01 12:16:00;;;;;;;9.40;6.28;;;;;;;;;;5090325;28;20044;-68
2022/03/01 12:18:29;;;;;;;12.32;7.68;;;;;;;;;;5089617;28;20047;-68
2022/03/01 12:21:00;;;;;;;9.90;7.45;;;;;;;;;;5090097;28;20052;-68
2022/03/01 12:23:29;;;;;;;14.27;8.82;;;;;;;;;;5090522;28;20048;-68
2022/03/01 12:25:59;;;;;;;14.88;8.57;;;;;;;;;;5090011;28;20045;-67
2022/03/01 12:28:26;;;;;;;13.13;9.35;;;;;;;;;;5089855;28;20047;-69
2022/03/01 12:30:54;;;;;;;14.10;9.75;;;;;;;;;;5089935;28;20102;-67
2022/03/01 12:33:21;;;;;;;11.68;8.68;;;;;;;;;;5089727;28;20041;-68
2022/03/01 12:35:58;;;;;;;13.10;9.35;;;;;;;;;;5089952;28;20050;-68
2022/03/01 12:38:25;;;;;;;13.32;8.73;;;;;;;;;;5089787;28;20040;-67
2022/03/01 12:40:53;;;;;;;12.73;8.57;;;;;;;;;;5089419;28;20502;-67
2022/03/01 12:43:20;;;;;;;12.18;8.27;;;;;;;;;;5089189;28;20044;-68
2022/03/01 12:45:50;;;;;;;18.48;10.98;;;;;;;;;;5075736;28;20044;-68
2022/03/01 12:48:17;;;;;;;31.02;15.80;;;;;;;;;;5075862;28;20072;-68
2022/03/01 12:50:49;;;;;;;24.08;14.52;;;;;;;;;;5075891;28;20490;-68
2022/03/01 12:53:17;;;;;;;19.40;12.30;;;;;;;;;;5075967;28;20087;-68
2022/03/01 12:55:49;;;;;;;13.80;9.98;;;;;;;;;;5075787;28;20040;-68
2022/03/01 12:58:18;;;;;;;22.08;14.80;;;;;;;;;;5075663;28;20551;-66
2022/03/01 13:00:46;;;;;;;15.30;11.02;;;;;;;;;;5075618;28;20044;-66
2022/03/01 13:03:24;;;;;;;19.75;12.98;;;;;;;;;;5075558;28;20048;-67
2022/03/01 13:05:51;;;;;;;16.45;10.07;;;;;;;;;;5075586;28;20051;-67
2022/03/01 13:08:19;;;;;;;16.05;10.07;;;;;;;;;;5075345;28;20052;-67
2022/03/01 13:10:47;;;;;;;11.82;8.35;;;;;;;;;;5075585;28;20451;-67
2022/03/01 13:16:38;;;;;;;13.77;9.30;;;;;;;;;;4975734;28;20498;-69
2022/03/01 13:19:06;;;;;;;18.33;11.82;;;;;;;;;;4976641;28;20043;-69
2022/03/01 13:21:38;;;;;;;15.35;9.45;;;;;;;;;;4975196;28;20065;-69
2022/03/01 13:24:13;;;;;;;14.00;9.40;;;;;;;;;;4975284;28;20050;-69
2022/03/01 13:26:41;;;;;;;14.30;9.40;;;;;;;;;;4976671;28;20078;-69
2022/03/01 13:29:13;;;;;;;14.15;9.55;;;;;;;;;;4976497;28;20043;-69
2022/03/01 13:31:41;;;;;;;15.73;10.95;;;;;;;;;;4976529;28;20047;-69
2022/03/01 13:34:10;;;;;;;16.67;10.45;;;;;;;;;;4977053;28;20062;-69
2022/03/01 13:36:40;;;;;;;13.82;10.38;;;;;;;;;;4976993;28;20042;-68
2022/03/01 13:39:10;;;;;;;14.60;9.65;;;;;;;;;;4976273;28;20050;-69
2022/03/01 13:41:39;;;;;;;15.38;10.32;;;;;;;;;;4976113;28;20042;-69
2022/03/01 13:44:13;;;;;;;14.20;10.02;;;;;;;;;;4975977;28;20054;-69
2022/03/01 13:46:52;;;;;;;16.83;10.77;;;;;;;;;;4976355;28;20063;-69
2022/03/01 13:49:45;;;;;;;17.35;11.93;;;;;;;;;;4976170;28;20052;-69
2022/03/01 13:52:15;;;;;;;13.00;9.52;;;;;;;;;;4968135;28;20521;-69
2022/03/01 13:54:48;;;;;;;13.02;9.57;;;;;;;;;;4975725;28;20042;-69
2022/03/01 13:57:23;;;;;;;15.50;10.75;;;;;;;;;;4974838;28;20045;-69
2022/03/01 14:00:01;;;;;;;13.40;8.32;;;;;;;;;;4975809;28;20062;-69
2022/03/01 14:02:38;;;;;;;13.70;9.05;;;;;;;;;;4976003;28;20101;-69
2022/03/01 14:05:12;;;;;;;13.50;9.77;;;;;;;;;;4975733;28;20046;-69
2022/03/01 14:07:39;;;;;;;13.65;10.02;;;;;;;;;;4975900;28;20074;-69
2022/03/01 14:10:07;;;;;;;14.05;10.32;;;;;;;;;;4975877;28;20043;-69
2022/03/01 14:12:38;;;;;;;15.25;11.45;;;;;;;;;;4975499;28;20054;-69
2022/03/01 14:15:16;;;;;;;14.30;10.43;;;;;;;;;;4983998;28;20054;-69
2022/03/01 14:17:43;;;;;;;13.95;10.38;;;;;;;;;;4995121;28;20109;-69
2022/03/01 14:20:12;;;;;;;15.43;10.57;;;;;;;;;;4994690;28;20050;-69
2022/03/01 14:22:39;;;;;;;16.60;11.40;;;;;;;;;;4995083;28;20037;-69
2022/03/01 14:25:07;;;;;;;16.73;12.30;;;;;;;;;;4994688;28;20050;-69
2022/03/01 14:27:34;;;;;;;17.83;12.63;;;;;;;;;;4994830;28;20448;-69
2022/03/01 14:30:02;;;;;;;18.30;12.20;;;;;;;;;;4995225;28;20069;-69
2022/03/01 14:32:29;;;;;;;17.50;12.20;;;;;;;;;;4994563;28;20092;-69
2022/03/01 14:34:57;;;;;;;20.70;13.52;;;;;;;;;;4994538;28;20034;-70
2022/03/01 14:37:24;;;;;;;22.08;14.88;;;;;;;;;;4994697;28;20581;-69
2022/03/01 14:39:52;;;;;;;21.27;15.90;;;;;;;;;;4994437;28;20069;-70
2022/03/01 14:42:20;;;;;;;22.13;15.88;;;;;;;;;;4994467;28;20075;-69
2022/03/01 14:44:47;;;;;;;19.38;14.40;;;;;;;;;;4994640;28;20070;-69
2022/03/01 14:47:15;;;;;;;19.25;13.75;;;;;;;;;;4994117;28;20046;-69
2022/03/01 14:49:44;;;;;;;19.90;14.32;;;;;;;;;;4994375;28;20104;-69
2022/03/01 14:52:15;;;;;;;22.05;14.82;;;;;;;;;;4994423;28;20085;-71
2022/03/01 14:54:44;;;;;;;21.02;14.80;;;;;;;;;;4993948;28;20496;-70
2022/03/01 14:57:13;;;;;;;21.55;14.60;;;;;;;;;;4994056;28;20042;-70
2022/03/01 14:59:43;;;;;;;23.85;15.45;;;;;;;;;;4993910;28;20039;-70
2022/03/01 15:02:16;;;;;;;22.40;13.82;;;;;;;;;;4994191;28;20049;-70
2022/03/01 15:04:52;;;;;;;21.48;14.02;;;;;;;;;;4994021;28;20050;-70
2022/03/01 15:07:23;;;;;;;20.95;14.05;;;;;;;;;;4993613;28;20399;-70
2022/03/01 15:09:58;;;;;;;21.80;14.70;;;;;;;;;;4994130;28;20053;-70
2022/03/01 15:12:32;;;;;;;21.83;13.82;;;;;;;;;;4978755;28;20043;-70
2022/03/01 15:14:59;;;;;;;19.05;13.77;;;;;;;;;;4992550;28;20133;-69
2022/03/01 15:17:28;;;;;;;19.88;13.02;;;;;;;;;;4993939;28;20129;-70
2022/03/01 15:19:57;;;;;;;18.40;13.25;;;;;;;;;;4993924;28;20042;-70
2022/03/01 15:22:27;;;;;;;22.83;14.27;;;;;;;;;;4994260;28;20114;-70
2022/03/01 15:24:55;;;;;;;21.15;14.20;;;;;;;;;;4993818;28;20061;-70
2022/03/01 15:27:24;;;;;;;19.85;14.00;;;;;;;;;;4994198;28;20039;-70